sensor_id;sensor_type;location;lat;lon;timestamp;P1;durP1;ratioP1;P2;durP2;ratioP2
37641;SDS011;23486;51.956;5.888;2022-11-15T00:00:16;39.50;;;16.92;;
37641;SDS011;23486;51.956;5.888;2022-11-15T00:02:41;33.63;;;15.88;;
37641;SDS011;23486;51.956;5.888;2022-11-15T00:05:07;38.78;;;17.35;;
37641;SDS011;23486;51.956;5.888;2022-11-15T00:07:33;33.50;;;15.65;;
37641;SDS011;23486;51.956;5.888;2022-11-15T00:09:58;31.75;;;15.73;;
37641;SDS011;23486;51.956;5.888;2022-11-15T00:12:24;36.92;;;17.17;;
37641;SDS011;23486;51.956;5.888;2022-11-15T00:14:49;40.72;;;18.17;;
37641;SDS011;23486;51.956;5.888;2022-11-15T00:17:15;33.30;;;15.88;;
37641;SDS011;23486;51.956;5.888;2022-11-15T00:19:40;33.65;;;16.95;;
37641;SDS011;23486;51.956;5.888;2022-11-15T00:22:09;35.42;;;18.00;;
37641;SDS011;23486;51.956;5.888;2022-11-15T00:24:34;37.22;;;17.55;;
37641;SDS011;23486;51.956;5.888;2022-11-15T00:27:00;33.53;;;16.80;;
37641;SDS011;23486;51.956;5.888;2022-11-15T00:29:25;30.63;;;16.85;;
37641;SDS011;23486;51.956;5.888;2022-11-15T00:31:51;33.95;;;16.58;;
37641;SDS011;23486;51.956;5.888;2022-11-15T00:34:17;33.53;;;16.73;;
37641;SDS011;23486;51.956;5.888;2022-11-15T00:36:43;34.20;;;16.25;;
37641;SDS011;23486;51.956;5.888;2022-11-15T00:39:08;31.40;;;16.40;;
37641;SDS011;23486;51.956;5.888;2022-11-15T00:41:34;33.15;;;16.23;;
37641;SDS011;23486;51.956;5.888;2022-11-15T00:43:59;29.40;;;15.68;;
37641;SDS011;23486;51.956;5.888;2022-11-15T00:46:25;26.17;;;16.08;;
37641;SDS011;23486;51.956;5.888;2022-11-15T00:48:51;32.28;;;16.08;;
37641;SDS011;23486;51.956;5.888;2022-11-15T00:51:16;25.98;;;16.55;;
37641;SDS011;23486;51.956;5.888;2022-11-15T00:53:42;27.88;;;16.33;;
37641;SDS011;23486;51.956;5.888;2022-11-15T00:56:07;26.52;;;16.35;;
37641;SDS011;23486;51.956;5.888;2022-11-15T00:58:33;28.65;;;15.27;;
37641;SDS011;23486;51.956;5.888;2022-11-15T01:01:05;28.10;;;15.55;;
37641;SDS011;23486;51.956;5.888;2022-11-15T01:03:35;28.25;;;15.90;;
37641;SDS011;23486;51.956;5.888;2022-11-15T01:06:01;31.80;;;18.50;;
37641;SDS011;23486;51.956;5.888;2022-11-15T01:08:27;31.63;;;17.67;;
37641;SDS011;23486;51.956;5.888;2022-11-15T01:10:53;25.40;;;15.40;;
37641;SDS011;23486;51.956;5.888;2022-11-15T01:13:18;27.48;;;16.35;;
37641;SDS011;23486;51.956;5.888;2022-11-15T01:15:44;26.35;;;16.83;;
37641;SDS011;23486;51.956;5.888;2022-11-15T01:18:09;29.10;;;15.48;;
37641;SDS011;23486;51.956;5.888;2022-11-15T01:20:39;23.27;;;15.15;;
37641;SDS011;23486;51.956;5.888;2022-11-15T01:23:06;27.60;;;16.02;;
37641;SDS011;23486;51.956;5.888;2022-11-15T01:25:32;22.30;;;14.63;;
37641;SDS011;23486;51.956;5.888;2022-11-15T01:27:57;22.88;;;14.60;;
37641;SDS011;23486;51.956;5.888;2022-11-15T01:30:23;25.70;;;15.88;;
37641;SDS011;23486;51.956;5.888;2022-11-15T01:32:49;27.30;;;16.05;;
37641;SDS011;23486;51.956;5.888;2022-11-15T01:35:14;28.48;;;15.73;;
37641;SDS011;23486;51.956;5.888;2022-11-15T01:37:40;27.02;;;16.45;;
37641;SDS011;23486;51.956;5.888;2022-11-15T01:40:05;26.25;;;15.50;;
37641;SDS011;23486;51.956;5.888;2022-11-15T01:42:31;30.83;;;16.58;;
37641;SDS011;23486;51.956;5.888;2022-11-15T01:44:57;25.65;;;15.57;;
37641;SDS011;23486;51.956;5.888;2022-11-15T01:47:24;27.02;;;16.48;;
37641;SDS011;23486;51.956;5.888;2022-11-15T01:49:57;28.23;;;16.20;;
37641;SDS011;23486;51.956;5.888;2022-11-15T01:52:25;24.83;;;16.23;;
37641;SDS011;23486;51.956;5.888;2022-11-15T01:54:56;27.10;;;15.82;;
37641;SDS011;23486;51.956;5.888;2022-11-15T01:57:28;23.27;;;14.68;;
37641;SDS011;23486;51.956;5.888;2022-11-15T01:59:54;25.58;;;16.00;;
37641;SDS011;23486;51.956;5.888;2022-11-15T02:02:21;27.15;;;16.35;;
37641;SDS011;23486;51.956;5.888;2022-11-15T02:04:47;27.52;;;16.20;;
37641;SDS011;23486;51.956;5.888;2022-11-15T02:07:16;26.73;;;15.93;;
37641;SDS011;23486;51.956;5.888;2022-11-15T02:09:47;26.70;;;15.00;;
37641;SDS011;23486;51.956;5.888;2022-11-15T02:12:16;24.02;;;14.77;;
37641;SDS011;23486;51.956;5.888;2022-11-15T02:14:45;24.67;;;14.50;;
37641;SDS011;23486;51.956;5.888;2022-11-15T02:17:36;23.65;;;14.50;;
37641;SDS011;23486;51.956;5.888;2022-11-15T02:20:24;25.02;;;15.95;;
37641;SDS011;23486;51.956;5.888;2022-11-15T02:23:15;22.38;;;14.98;;
37641;SDS011;23486;51.956;5.888;2022-11-15T02:31:11;26.23;;;15.63;;
37641;SDS011;23486;51.956;5.888;2022-11-15T02:36:42;26.00;;;15.48;;
37641;SDS011;23486;51.956;5.888;2022-11-15T02:42:25;19.55;;;13.88;;
37641;SDS011;23486;51.956;5.888;2022-11-15T02:45:33;21.17;;;14.27;;
37641;SDS011;23486;51.956;5.888;2022-11-15T02:48:04;19.38;;;13.23;;
37641;SDS011;23486;51.956;5.888;2022-11-15T02:50:32;22.27;;;14.40;;
37641;SDS011;23486;51.956;5.888;2022-11-15T02:52:58;23.67;;;14.40;;
37641;SDS011;23486;51.956;5.888;2022-11-15T02:55:25;25.90;;;16.52;;
37641;SDS011;23486;51.956;5.888;2022-11-15T03:00:45;24.88;;;14.88;;
37641;SDS011;23486;51.956;5.888;2022-11-15T03:11:44;23.00;;;14.55;;
37641;SDS011;23486;51.956;5.888;2022-11-15T03:14:25;22.17;;;13.73;;
37641;SDS011;23486;51.956;5.888;2022-11-15T03:19:50;23.10;;;14.30;;
37641;SDS011;23486;51.956;5.888;2022-11-15T03:22:20;24.98;;;15.63;;
37641;SDS011;23486;51.956;5.888;2022-11-15T03:24:50;27.75;;;16.33;;
37641;SDS011;23486;51.956;5.888;2022-11-15T03:27:20;25.33;;;15.88;;
37641;SDS011;23486;51.956;5.888;2022-11-15T03:29:50;21.17;;;14.07;;
37641;SDS011;23486;51.956;5.888;2022-11-15T03:35:08;22.65;;;13.55;;
37641;SDS011;23486;51.956;5.888;2022-11-15T03:37:37;25.45;;;15.32;;
37641;SDS011;23486;51.956;5.888;2022-11-15T03:40:13;23.20;;;14.90;;
37641;SDS011;23486;51.956;5.888;2022-11-15T03:42:43;25.60;;;15.73;;
37641;SDS011;23486;51.956;5.888;2022-11-15T03:47:43;26.90;;;15.68;;
37641;SDS011;23486;51.956;5.888;2022-11-15T03:50:18;29.00;;;16.85;;
37641;SDS011;23486;51.956;5.888;2022-11-15T03:52:46;29.70;;;17.60;;
37641;SDS011;23486;51.956;5.888;2022-11-15T03:55:16;27.13;;;17.33;;
37641;SDS011;23486;51.956;5.888;2022-11-15T03:57:43;24.67;;;17.15;;
37641;SDS011;23486;51.956;5.888;2022-11-15T04:00:09;29.92;;;18.65;;
37641;SDS011;23486;51.956;5.888;2022-11-15T04:02:35;28.05;;;18.08;;
37641;SDS011;23486;51.956;5.888;2022-11-15T04:05:07;26.10;;;18.55;;
37641;SDS011;23486;51.956;5.888;2022-11-15T04:07:33;31.50;;;18.67;;
37641;SDS011;23486;51.956;5.888;2022-11-15T04:09:59;28.98;;;17.25;;
37641;SDS011;23486;51.956;5.888;2022-11-15T04:12:28;27.23;;;17.85;;
37641;SDS011;23486;51.956;5.888;2022-11-15T04:15:01;29.63;;;18.90;;
37641;SDS011;23486;51.956;5.888;2022-11-15T04:17:39;34.10;;;19.88;;
37641;SDS011;23486;51.956;5.888;2022-11-15T04:20:10;27.83;;;17.55;;
37641;SDS011;23486;51.956;5.888;2022-11-15T04:22:57;28.45;;;18.35;;
37641;SDS011;23486;51.956;5.888;2022-11-15T04:25:42;30.35;;;17.63;;
37641;SDS011;23486;51.956;5.888;2022-11-15T04:28:08;29.35;;;18.30;;
37641;SDS011;23486;51.956;5.888;2022-11-15T04:30:34;26.95;;;17.88;;
37641;SDS011;23486;51.956;5.888;2022-11-15T04:33:00;29.13;;;19.05;;
37641;SDS011;23486;51.956;5.888;2022-11-15T04:35:26;27.33;;;17.35;;
37641;SDS011;23486;51.956;5.888;2022-11-15T04:37:52;29.30;;;17.65;;
37641;SDS011;23486;51.956;5.888;2022-11-15T04:40:18;26.95;;;17.52;;
37641;SDS011;23486;51.956;5.888;2022-11-15T04:42:44;25.65;;;17.08;;
37641;SDS011;23486;51.956;5.888;2022-11-15T04:45:10;26.80;;;15.90;;
37641;SDS011;23486;51.956;5.888;2022-11-15T04:47:38;27.55;;;16.95;;
37641;SDS011;23486;51.956;5.888;2022-11-15T04:50:04;32.03;;;18.00;;
37641;SDS011;23486;51.956;5.888;2022-11-15T04:52:30;27.45;;;17.60;;
37641;SDS011;23486;51.956;5.888;2022-11-15T04:54:56;26.67;;;16.85;;
37641;SDS011;23486;51.956;5.888;2022-11-15T04:57:21;27.38;;;17.00;;
37641;SDS011;23486;51.956;5.888;2022-11-15T04:59:47;27.98;;;16.92;;
37641;SDS011;23486;51.956;5.888;2022-11-15T05:02:12;30.58;;;18.05;;
37641;SDS011;23486;51.956;5.888;2022-11-15T05:04:38;25.50;;;15.95;;
37641;SDS011;23486;51.956;5.888;2022-11-15T05:07:04;30.50;;;19.27;;
37641;SDS011;23486;51.956;5.888;2022-11-15T05:09:29;29.65;;;18.88;;
37641;SDS011;23486;51.956;5.888;2022-11-15T05:11:55;26.98;;;17.50;;
37641;SDS011;23486;51.956;5.888;2022-11-15T05:14:21;32.22;;;19.38;;
37641;SDS011;23486;51.956;5.888;2022-11-15T05:16:46;30.52;;;17.70;;
37641;SDS011;23486;51.956;5.888;2022-11-15T05:19:12;31.33;;;18.70;;
37641;SDS011;23486;51.956;5.888;2022-11-15T05:21:37;31.30;;;19.10;;
37641;SDS011;23486;51.956;5.888;2022-11-15T05:24:03;32.88;;;19.77;;
37641;SDS011;23486;51.956;5.888;2022-11-15T05:26:29;29.48;;;18.40;;
37641;SDS011;23486;51.956;5.888;2022-11-15T05:28:55;33.08;;;18.83;;
37641;SDS011;23486;51.956;5.888;2022-11-15T05:31:26;26.83;;;18.17;;
37641;SDS011;23486;51.956;5.888;2022-11-15T05:33:52;29.00;;;18.42;;
37641;SDS011;23486;51.956;5.888;2022-11-15T05:36:21;34.25;;;19.60;;
37641;SDS011;23486;51.956;5.888;2022-11-15T05:38:54;30.35;;;16.58;;
37641;SDS011;23486;51.956;5.888;2022-11-15T05:41:20;32.40;;;18.73;;
37641;SDS011;23486;51.956;5.888;2022-11-15T05:43:51;30.92;;;18.98;;
37641;SDS011;23486;51.956;5.888;2022-11-15T05:46:18;30.95;;;18.75;;
37641;SDS011;23486;51.956;5.888;2022-11-15T05:48:45;30.35;;;18.60;;
37641;SDS011;23486;51.956;5.888;2022-11-15T05:51:14;29.67;;;19.30;;
37641;SDS011;23486;51.956;5.888;2022-11-15T05:53:41;29.55;;;17.58;;
37641;SDS011;23486;51.956;5.888;2022-11-15T05:56:07;28.73;;;18.13;;
37641;SDS011;23486;51.956;5.888;2022-11-15T05:58:34;28.08;;;17.77;;
37641;SDS011;23486;51.956;5.888;2022-11-15T06:01:02;30.63;;;18.85;;
37641;SDS011;23486;51.956;5.888;2022-11-15T06:03:28;28.98;;;18.52;;
37641;SDS011;23486;51.956;5.888;2022-11-15T06:05:54;29.05;;;18.73;;
37641;SDS011;23486;51.956;5.888;2022-11-15T06:08:19;31.52;;;18.73;;
37641;SDS011;23486;51.956;5.888;2022-11-15T06:10:45;37.83;;;18.42;;
37641;SDS011;23486;51.956;5.888;2022-11-15T06:13:10;31.15;;;17.33;;
37641;SDS011;23486;51.956;5.888;2022-11-15T06:15:36;32.72;;;17.58;;
37641;SDS011;23486;51.956;5.888;2022-11-15T06:18:02;27.83;;;18.15;;
37641;SDS011;23486;51.956;5.888;2022-11-15T06:20:28;27.27;;;16.85;;
37641;SDS011;23486;51.956;5.888;2022-11-15T06:22:57;28.35;;;16.27;;
37641;SDS011;23486;51.956;5.888;2022-11-15T06:25:24;29.15;;;18.75;;
37641;SDS011;23486;51.956;5.888;2022-11-15T06:27:51;27.88;;;18.08;;
37641;SDS011;23486;51.956;5.888;2022-11-15T06:30:17;31.38;;;17.92;;
37641;SDS011;23486;51.956;5.888;2022-11-15T06:32:45;27.55;;;17.35;;
37641;SDS011;23486;51.956;5.888;2022-11-15T06:35:11;27.20;;;16.92;;
37641;SDS011;23486;51.956;5.888;2022-11-15T06:37:36;30.50;;;18.00;;
37641;SDS011;23486;51.956;5.888;2022-11-15T06:40:02;32.38;;;16.77;;
37641;SDS011;23486;51.956;5.888;2022-11-15T06:42:28;28.25;;;16.00;;
37641;SDS011;23486;51.956;5.888;2022-11-15T06:44:53;24.98;;;16.55;;
37641;SDS011;23486;51.956;5.888;2022-11-15T06:47:19;26.90;;;17.38;;
37641;SDS011;23486;51.956;5.888;2022-11-15T06:49:44;24.38;;;16.02;;
37641;SDS011;23486;51.956;5.888;2022-11-15T06:52:10;30.05;;;17.40;;
37641;SDS011;23486;51.956;5.888;2022-11-15T06:54:35;26.33;;;16.55;;
37641;SDS011;23486;51.956;5.888;2022-11-15T06:57:01;28.33;;;16.70;;
37641;SDS011;23486;51.956;5.888;2022-11-15T06:59:29;26.00;;;15.60;;
37641;SDS011;23486;51.956;5.888;2022-11-15T07:01:54;27.58;;;16.45;;
37641;SDS011;23486;51.956;5.888;2022-11-15T07:04:20;24.90;;;16.33;;
37641;SDS011;23486;51.956;5.888;2022-11-15T07:06:49;27.13;;;16.40;;
37641;SDS011;23486;51.956;5.888;2022-11-15T07:09:14;27.92;;;16.25;;
37641;SDS011;23486;51.956;5.888;2022-11-15T07:11:40;22.63;;;14.30;;
37641;SDS011;23486;51.956;5.888;2022-11-15T07:14:05;25.92;;;15.85;;
37641;SDS011;23486;51.956;5.888;2022-11-15T07:16:35;27.75;;;17.35;;
37641;SDS011;23486;51.956;5.888;2022-11-15T07:19:01;23.50;;;15.18;;
37641;SDS011;23486;51.956;5.888;2022-11-15T07:21:27;27.17;;;16.92;;
37641;SDS011;23486;51.956;5.888;2022-11-15T07:23:52;23.67;;;15.63;;
37641;SDS011;23486;51.956;5.888;2022-11-15T07:26:18;23.70;;;14.70;;
37641;SDS011;23486;51.956;5.888;2022-11-15T07:28:43;25.25;;;16.48;;
37641;SDS011;23486;51.956;5.888;2022-11-15T07:31:09;22.27;;;15.23;;
37641;SDS011;23486;51.956;5.888;2022-11-15T07:33:35;24.90;;;15.23;;
37641;SDS011;23486;51.956;5.888;2022-11-15T07:36:01;23.27;;;14.63;;
37641;SDS011;23486;51.956;5.888;2022-11-15T07:38:28;22.80;;;14.43;;
37641;SDS011;23486;51.956;5.888;2022-11-15T07:40:58;22.05;;;13.55;;
37641;SDS011;23486;51.956;5.888;2022-11-15T07:43:25;21.42;;;13.50;;
37641;SDS011;23486;51.956;5.888;2022-11-15T07:45:53;22.02;;;13.93;;
37641;SDS011;23486;51.956;5.888;2022-11-15T07:48:21;23.10;;;13.98;;
37641;SDS011;23486;51.956;5.888;2022-11-15T07:50:47;18.88;;;12.50;;
37641;SDS011;23486;51.956;5.888;2022-11-15T07:53:13;22.98;;;13.43;;
37641;SDS011;23486;51.956;5.888;2022-11-15T07:55:39;24.33;;;12.98;;
37641;SDS011;23486;51.956;5.888;2022-11-15T07:58:07;22.45;;;14.25;;
37641;SDS011;23486;51.956;5.888;2022-11-15T08:00:34;28.92;;;14.13;;
37641;SDS011;23486;51.956;5.888;2022-11-15T08:05:34;18.23;;;13.43;;
37641;SDS011;23486;51.956;5.888;2022-11-15T08:08:00;21.77;;;14.52;;
37641;SDS011;23486;51.956;5.888;2022-11-15T08:10:26;25.95;;;14.82;;
37641;SDS011;23486;51.956;5.888;2022-11-15T08:13:03;22.40;;;13.70;;
37641;SDS011;23486;51.956;5.888;2022-11-15T08:15:30;21.38;;;13.43;;
37641;SDS011;23486;51.956;5.888;2022-11-15T08:17:56;20.58;;;12.48;;
37641;SDS011;23486;51.956;5.888;2022-11-15T08:20:24;22.05;;;13.38;;
37641;SDS011;23486;51.956;5.888;2022-11-15T08:22:50;22.40;;;14.65;;
37641;SDS011;23486;51.956;5.888;2022-11-15T08:25:16;21.50;;;14.30;;
37641;SDS011;23486;51.956;5.888;2022-11-15T08:27:44;22.67;;;14.48;;
37641;SDS011;23486;51.956;5.888;2022-11-15T08:30:10;20.17;;;13.65;;
37641;SDS011;23486;51.956;5.888;2022-11-15T08:32:40;18.52;;;12.45;;
37641;SDS011;23486;51.956;5.888;2022-11-15T08:35:06;20.95;;;13.75;;
37641;SDS011;23486;51.956;5.888;2022-11-15T08:37:32;19.67;;;12.85;;
37641;SDS011;23486;51.956;5.888;2022-11-15T08:39:58;22.73;;;14.52;;
37641;SDS011;23486;51.956;5.888;2022-11-15T08:42:23;23.58;;;14.60;;
37641;SDS011;23486;51.956;5.888;2022-11-15T08:44:49;23.45;;;14.75;;
37641;SDS011;23486;51.956;5.888;2022-11-15T08:47:14;18.13;;;14.05;;
37641;SDS011;23486;51.956;5.888;2022-11-15T08:49:40;22.20;;;15.20;;
37641;SDS011;23486;51.956;5.888;2022-11-15T08:52:05;23.70;;;14.98;;
37641;SDS011;23486;51.956;5.888;2022-11-15T08:54:31;20.55;;;14.40;;
37641;SDS011;23486;51.956;5.888;2022-11-15T08:56:57;26.60;;;15.75;;
37641;SDS011;23486;51.956;5.888;2022-11-15T08:59:22;20.15;;;13.88;;
37641;SDS011;23486;51.956;5.888;2022-11-15T09:01:48;21.58;;;13.55;;
37641;SDS011;23486;51.956;5.888;2022-11-15T09:04:14;18.10;;;12.30;;
37641;SDS011;23486;51.956;5.888;2022-11-15T09:06:40;17.88;;;11.95;;
37641;SDS011;23486;51.956;5.888;2022-11-15T09:09:05;15.18;;;10.85;;
37641;SDS011;23486;51.956;5.888;2022-11-15T09:11:31;17.90;;;11.63;;
37641;SDS011;23486;51.956;5.888;2022-11-15T09:13:57;17.02;;;10.68;;
37641;SDS011;23486;51.956;5.888;2022-11-15T09:16:22;15.82;;;10.57;;
37641;SDS011;23486;51.956;5.888;2022-11-15T09:18:48;16.00;;;9.98;;
37641;SDS011;23486;51.956;5.888;2022-11-15T09:21:13;14.13;;;9.02;;
37641;SDS011;23486;51.956;5.888;2022-11-15T09:23:39;20.35;;;10.98;;
37641;SDS011;23486;51.956;5.888;2022-11-15T09:26:05;13.52;;;8.98;;
37641;SDS011;23486;51.956;5.888;2022-11-15T09:28:31;15.52;;;10.45;;
37641;SDS011;23486;51.956;5.888;2022-11-15T09:30:58;14.32;;;10.05;;
37641;SDS011;23486;51.956;5.888;2022-11-15T09:33:25;16.90;;;9.60;;
37641;SDS011;23486;51.956;5.888;2022-11-15T09:35:51;13.70;;;9.05;;
37641;SDS011;23486;51.956;5.888;2022-11-15T09:38:17;11.70;;;8.00;;
37641;SDS011;23486;51.956;5.888;2022-11-15T09:40:43;12.90;;;7.88;;
37641;SDS011;23486;51.956;5.888;2022-11-15T09:43:32;11.95;;;7.75;;
37641;SDS011;23486;51.956;5.888;2022-11-15T09:46:24;15.48;;;8.95;;
37641;SDS011;23486;51.956;5.888;2022-11-15T09:49:01;12.05;;;8.77;;
37641;SDS011;23486;51.956;5.888;2022-11-15T09:51:29;13.90;;;8.95;;
37641;SDS011;23486;51.956;5.888;2022-11-15T09:54:04;10.68;;;7.55;;
37641;SDS011;23486;51.956;5.888;2022-11-15T10:04:19;12.18;;;7.95;;
37641;SDS011;23486;51.956;5.888;2022-11-15T10:06:50;8.30;;;6.20;;
37641;SDS011;23486;51.956;5.888;2022-11-15T10:09:27;10.38;;;6.68;;
37641;SDS011;23486;51.956;5.888;2022-11-15T10:11:58;9.35;;;6.20;;
37641;SDS011;23486;51.956;5.888;2022-11-15T10:14:25;8.52;;;6.20;;
37641;SDS011;23486;51.956;5.888;2022-11-15T10:17:09;8.40;;;5.65;;
37641;SDS011;23486;51.956;5.888;2022-11-15T10:23:02;6.32;;;4.03;;
37641;SDS011;23486;51.956;5.888;2022-11-15T10:25:32;7.15;;;4.25;;
37641;SDS011;23486;51.956;5.888;2022-11-15T10:27:59;6.18;;;4.05;;
37641;SDS011;23486;51.956;5.888;2022-11-15T10:30:42;6.28;;;3.75;;
37641;SDS011;23486;51.956;5.888;2022-11-15T10:33:13;5.18;;;3.30;;
37641;SDS011;23486;51.956;5.888;2022-11-15T10:41:13;5.35;;;3.08;;
37641;SDS011;23486;51.956;5.888;2022-11-15T10:43:39;4.57;;;2.75;;
37641;SDS011;23486;51.956;5.888;2022-11-15T10:46:22;5.70;;;2.75;;
37641;SDS011;23486;51.956;5.888;2022-11-15T10:48:49;5.45;;;2.58;;
37641;SDS011;23486;51.956;5.888;2022-11-15T10:51:22;4.47;;;2.40;;
37641;SDS011;23486;51.956;5.888;2022-11-15T10:53:54;4.15;;;2.10;;
37641;SDS011;23486;51.956;5.888;2022-11-15T10:56:22;7.90;;;1.90;;
37641;SDS011;23486;51.956;5.888;2022-11-15T10:58:51;4.53;;;1.92;;
37641;SDS011;23486;51.956;5.888;2022-11-15T11:01:24;4.15;;;1.40;;
37641;SDS011;23486;51.956;5.888;2022-11-15T11:03:58;6.85;;;1.67;;
37641;SDS011;23486;51.956;5.888;2022-11-15T11:06:25;2.83;;;0.95;;
37641;SDS011;23486;51.956;5.888;2022-11-15T11:08:54;4.53;;;1.20;;
37641;SDS011;23486;51.956;5.888;2022-11-15T11:11:20;3.80;;;0.90;;
37641;SDS011;23486;51.956;5.888;2022-11-15T11:13:46;3.33;;;0.90;;
37641;SDS011;23486;51.956;5.888;2022-11-15T11:18:43;6.32;;;1.05;;
37641;SDS011;23486;51.956;5.888;2022-11-15T11:21:43;3.45;;;0.70;;
37641;SDS011;23486;51.956;5.888;2022-11-15T11:24:16;2.47;;;0.50;;
37641;SDS011;23486;51.956;5.888;2022-11-15T11:27:06;2.22;;;0.70;;
37641;SDS011;23486;51.956;5.888;2022-11-15T11:37:54;4.28;;;0.52;;
37641;SDS011;23486;51.956;5.888;2022-11-15T11:40:43;5.47;;;0.50;;
37641;SDS011;23486;51.956;5.888;2022-11-15T11:49:03;2.45;;;0.50;;
37641;SDS011;23486;51.956;5.888;2022-11-15T11:54:43;3.67;;;0.68;;
37641;SDS011;23486;51.956;5.888;2022-11-15T11:57:22;2.65;;;0.50;;
37641;SDS011;23486;51.956;5.888;2022-11-15T12:00:27;4.50;;;0.52;;
37641;SDS011;23486;51.956;5.888;2022-11-15T12:05:48;6.13;;;0.50;;
37641;SDS011;23486;51.956;5.888;2022-11-15T12:10:53;2.83;;;0.50;;
37641;SDS011;23486;51.956;5.888;2022-11-15T12:13:35;2.25;;;0.40;;
37641;SDS011;23486;51.956;5.888;2022-11-15T12:16:05;3.42;;;0.40;;
37641;SDS011;23486;51.956;5.888;2022-11-15T12:18:37;3.42;;;0.80;;
37641;SDS011;23486;51.956;5.888;2022-11-15T12:23:53;4.25;;;0.45;;
37641;SDS011;23486;51.956;5.888;2022-11-15T12:26:55;4.07;;;0.40;;
37641;SDS011;23486;51.956;5.888;2022-11-15T12:29:39;3.03;;;0.40;;
37641;SDS011;23486;51.956;5.888;2022-11-15T12:35:03;2.10;;;0.40;;
37641;SDS011;23486;51.956;5.888;2022-11-15T12:37:47;1.40;;;0.30;;
37641;SDS011;23486;51.956;5.888;2022-11-15T12:43:10;2.08;;;0.30;;
37641;SDS011;23486;51.956;5.888;2022-11-15T12:45:35;3.53;;;0.30;;
37641;SDS011;23486;51.956;5.888;2022-11-15T12:51:01;1.75;;;0.38;;
37641;SDS011;23486;51.956;5.888;2022-11-15T12:53:27;2.03;;;0.30;;
37641;SDS011;23486;51.956;5.888;2022-11-15T13:04:07;1.85;;;0.20;;
37641;SDS011;23486;51.956;5.888;2022-11-15T13:06:44;0.60;;;0.20;;
37641;SDS011;23486;51.956;5.888;2022-11-15T13:14:49;1.75;;;0.30;;
37641;SDS011;23486;51.956;5.888;2022-11-15T13:17:29;1.58;;;0.30;;
37641;SDS011;23486;51.956;5.888;2022-11-15T13:22:27;1.17;;;0.20;;
37641;SDS011;23486;51.956;5.888;2022-11-15T13:30:55;3.05;;;0.30;;
37641;SDS011;23486;51.956;5.888;2022-11-15T13:33:24;1.95;;;0.20;;
37641;SDS011;23486;51.956;5.888;2022-11-15T13:35:55;0.82;;;0.10;;
37641;SDS011;23486;51.956;5.888;2022-11-15T13:40:49;1.20;;;0.20;;
37641;SDS011;23486;51.956;5.888;2022-11-15T13:56:37;3.28;;;0.30;;
37641;SDS011;23486;51.956;5.888;2022-11-15T13:59:54;3.10;;;0.25;;
37641;SDS011;23486;51.956;5.888;2022-11-15T14:01:58;0.80;;;0.20;;
37641;SDS011;23486;51.956;5.888;2022-11-15T14:04:35;3.45;;;0.20;;
37641;SDS011;23486;51.956;5.888;2022-11-15T14:07:03;1.95;;;0.20;;
37641;SDS011;23486;51.956;5.888;2022-11-15T14:09:39;1.98;;;0.20;;
37641;SDS011;23486;51.956;5.888;2022-11-15T14:12:31;2.83;;;0.20;;
37641;SDS011;23486;51.956;5.888;2022-11-15T14:14:58;2.58;;;0.20;;
37641;SDS011;23486;51.956;5.888;2022-11-15T14:19:59;6.93;;;0.30;;
37641;SDS011;23486;51.956;5.888;2022-11-15T14:22:25;2.05;;;0.20;;
37641;SDS011;23486;51.956;5.888;2022-11-15T14:25:07;2.05;;;0.20;;
37641;SDS011;23486;51.956;5.888;2022-11-15T14:27:44;1.60;;;0.20;;
37641;SDS011;23486;51.956;5.888;2022-11-15T14:30:29;1.42;;;0.30;;
37641;SDS011;23486;51.956;5.888;2022-11-15T14:32:55;2.35;;;0.30;;
37641;SDS011;23486;51.956;5.888;2022-11-15T14:35:21;2.42;;;0.40;;
37641;SDS011;23486;51.956;5.888;2022-11-15T14:37:48;3.67;;;0.40;;
37641;SDS011;23486;51.956;5.888;2022-11-15T14:40:20;4.93;;;0.40;;
37641;SDS011;23486;51.956;5.888;2022-11-15T14:42:47;4.28;;;0.70;;
37641;SDS011;23486;51.956;5.888;2022-11-15T14:45:16;1.73;;;0.30;;
37641;SDS011;23486;51.956;5.888;2022-11-15T14:47:43;2.58;;;0.38;;
37641;SDS011;23486;51.956;5.888;2022-11-15T14:50:12;2.17;;;0.43;;
37641;SDS011;23486;51.956;5.888;2022-11-15T14:52:42;1.75;;;0.40;;
37641;SDS011;23486;51.956;5.888;2022-11-15T14:55:16;2.80;;;0.30;;
37641;SDS011;23486;51.956;5.888;2022-11-15T14:57:45;2.83;;;0.40;;
37641;SDS011;23486;51.956;5.888;2022-11-15T15:00:11;3.88;;;0.60;;
37641;SDS011;23486;51.956;5.888;2022-11-15T15:02:37;4.50;;;0.60;;
37641;SDS011;23486;51.956;5.888;2022-11-15T15:05:14;2.63;;;0.50;;
37641;SDS011;23486;51.956;5.888;2022-11-15T15:07:41;3.85;;;0.63;;
37641;SDS011;23486;51.956;5.888;2022-11-15T15:10:07;4.20;;;0.43;;
37641;SDS011;23486;51.956;5.888;2022-11-15T15:12:33;2.75;;;0.52;;
37641;SDS011;23486;51.956;5.888;2022-11-15T15:14:59;4.78;;;0.30;;
37641;SDS011;23486;51.956;5.888;2022-11-15T15:17:24;3.83;;;0.30;;
37641;SDS011;23486;51.956;5.888;2022-11-15T15:19:50;2.00;;;0.30;;
37641;SDS011;23486;51.956;5.888;2022-11-15T15:22:16;3.45;;;0.77;;
37641;SDS011;23486;51.956;5.888;2022-11-15T15:24:44;3.42;;;0.20;;
37641;SDS011;23486;51.956;5.888;2022-11-15T15:27:10;2.30;;;0.30;;
37641;SDS011;23486;51.956;5.888;2022-11-15T15:29:36;3.47;;;0.30;;
37641;SDS011;23486;51.956;5.888;2022-11-15T15:32:03;2.55;;;0.30;;
37641;SDS011;23486;51.956;5.888;2022-11-15T15:34:29;2.15;;;0.30;;
37641;SDS011;23486;51.956;5.888;2022-11-15T15:39:55;2.25;;;0.50;;
37641;SDS011;23486;51.956;5.888;2022-11-15T15:42:21;1.77;;;0.30;;
37641;SDS011;23486;51.956;5.888;2022-11-15T15:44:48;1.58;;;0.25;;
37641;SDS011;23486;51.956;5.888;2022-11-15T15:47:19;2.03;;;0.30;;
37641;SDS011;23486;51.956;5.888;2022-11-15T15:49:47;2.33;;;0.32;;
37641;SDS011;23486;51.956;5.888;2022-11-15T15:52:13;3.70;;;0.50;;
37641;SDS011;23486;51.956;5.888;2022-11-15T15:54:39;3.50;;;0.50;;
37641;SDS011;23486;51.956;5.888;2022-11-15T15:57:05;2.00;;;0.30;;
37641;SDS011;23486;51.956;5.888;2022-11-15T15:59:32;1.83;;;0.32;;
37641;SDS011;23486;51.956;5.888;2022-11-15T16:01:58;1.83;;;0.45;;
37641;SDS011;23486;51.956;5.888;2022-11-15T16:04:26;3.45;;;0.90;;
37641;SDS011;23486;51.956;5.888;2022-11-15T16:06:57;3.08;;;0.50;;
37641;SDS011;23486;51.956;5.888;2022-11-15T16:09:24;3.55;;;0.40;;
37641;SDS011;23486;51.956;5.888;2022-11-15T16:12:11;6.03;;;0.60;;
37641;SDS011;23486;51.956;5.888;2022-11-15T16:14:36;4.68;;;0.40;;
37641;SDS011;23486;51.956;5.888;2022-11-15T16:17:02;3.30;;;0.85;;
37641;SDS011;23486;51.956;5.888;2022-11-15T16:19:28;6.55;;;0.60;;
37641;SDS011;23486;51.956;5.888;2022-11-15T16:21:54;2.30;;;0.30;;
37641;SDS011;23486;51.956;5.888;2022-11-15T16:24:20;4.40;;;0.50;;
37641;SDS011;23486;51.956;5.888;2022-11-15T16:26:46;2.25;;;0.38;;
37641;SDS011;23486;51.956;5.888;2022-11-15T16:29:13;2.22;;;0.55;;
37641;SDS011;23486;51.956;5.888;2022-11-15T16:31:39;1.83;;;0.30;;
37641;SDS011;23486;51.956;5.888;2022-11-15T16:34:04;4.07;;;0.60;;
37641;SDS011;23486;51.956;5.888;2022-11-15T16:36:37;1.83;;;0.30;;
37641;SDS011;23486;51.956;5.888;2022-11-15T16:39:03;2.53;;;0.40;;
37641;SDS011;23486;51.956;5.888;2022-11-15T16:41:29;4.70;;;0.50;;
37641;SDS011;23486;51.956;5.888;2022-11-15T16:43:55;5.30;;;0.63;;
37641;SDS011;23486;51.956;5.888;2022-11-15T16:46:24;1.88;;;0.32;;
37641;SDS011;23486;51.956;5.888;2022-11-15T16:48:51;1.80;;;0.40;;
37641;SDS011;23486;51.956;5.888;2022-11-15T16:51:18;3.00;;;0.50;;